createdAt,value
2022-12-08T00:02:21.313Z,34.45
2022-12-08T00:05:07.149Z,50.50
2022-12-08T00:08:00.293Z,18.75
2022-12-08T00:10:48.583Z,19.45
2022-12-08T00:13:16.737Z,11.93
2022-12-08T00:15:44.916Z,17.23
2022-12-08T00:18:15.021Z,78.22
2022-12-08T00:20:43.209Z,29.58
2022-12-08T00:23:12.775Z,23.73
2022-12-08T00:25:40.982Z,28.23
2022-12-08T00:28:09.201Z,46.50
2022-12-08T00:30:40.394Z,22.45
2022-12-08T00:33:08.600Z,21.48
2022-12-08T00:35:42.777Z,33.30
2022-12-08T00:38:12.752Z,34.10
2022-12-08T00:40:45.510Z,48.30
2022-12-08T00:43:14.833Z,29.70
2022-12-08T00:45:43.917Z,18.50
2022-12-08T00:48:12.233Z,23.33
2022-12-08T00:50:40.416Z,19.77
2022-12-08T00:53:08.628Z,18.63
2022-12-08T00:55:38.217Z,27.65
2022-12-08T00:58:06.401Z,19.90
2022-12-08T01:00:34.616Z,16.75
2022-12-08T01:03:02.879Z,24.33
2022-12-08T01:05:31.124Z,22.10
2022-12-08T01:07:59.373Z,23.20
2022-12-08T01:10:27.636Z,20.25
2022-12-08T01:12:57.217Z,32.78
2022-12-08T01:15:25.402Z,25.95
2022-12-08T01:17:53.629Z,50.97
2022-12-08T01:20:21.848Z,26.30
2022-12-08T01:22:50.080Z,14.35
2022-12-08T01:25:18.627Z,30.25
2022-12-08T01:27:46.869Z,15.75
2022-12-08T01:30:16.886Z,29.00
2022-12-08T01:32:45.076Z,33.72
2022-12-08T01:35:14.065Z,25.42
2022-12-08T01:37:42.297Z,25.15
2022-12-08T01:40:11.221Z,37.58
2022-12-08T01:42:39.660Z,22.15
2022-12-08T01:45:21.728Z,19.33
2022-12-08T01:47:55.352Z,13.05
2022-12-08T01:50:23.912Z,98.38
2022-12-08T01:52:56.001Z,41.42
2022-12-08T01:55:27.317Z,17.40
2022-12-08T01:58:01.552Z,21.08
2022-12-08T02:00:31.216Z,25.30
2022-12-08T02:03:01.531Z,20.50
2022-12-08T02:05:32.256Z,22.08
2022-12-08T02:08:04.337Z,20.73
2022-12-08T02:10:35.837Z,12.00
2022-12-08T02:13:05.265Z,27.55
2022-12-08T02:15:40.212Z,35.25
2022-12-08T02:18:23.905Z,30.55
2022-12-08T02:20:59.286Z,25.95
2022-12-08T02:23:38.348Z,17.05
2022-12-08T02:26:45.173Z,19.13
2022-12-08T02:29:48.832Z,17.33
2022-12-08T02:32:35.722Z,18.85
2022-12-08T02:35:11.140Z,24.92
2022-12-08T02:37:43.160Z,27.20
2022-12-08T02:40:18.513Z,30.45
2022-12-08T02:42:50.028Z,22.95
2022-12-08T02:45:24.621Z,24.65
2022-12-08T02:47:53.560Z,17.60
2022-12-08T02:50:23.297Z,26.67
2022-12-08T02:52:51.500Z,18.17
2022-12-08T02:55:25.684Z,25.33
2022-12-08T02:58:06.564Z,19.65
2022-12-08T03:00:44.302Z,16.17
2022-12-08T03:03:20.819Z,24.83
2022-12-08T03:06:02.081Z,22.70
2022-12-08T03:08:43.200Z,22.75
2022-12-08T03:11:15.682Z,21.33
2022-12-08T03:13:46.704Z,14.75
2022-12-08T03:16:19.832Z,17.88
2022-12-08T03:18:51.979Z,18.85
2022-12-08T03:21:23.226Z,16.67
2022-12-08T03:23:56.113Z,21.52
2022-12-08T03:26:30.576Z,20.77
2022-12-08T03:28:59.213Z,15.13
2022-12-08T03:31:30.111Z,17.80
2022-12-08T03:34:00.489Z,16.83
2022-12-08T03:36:30.253Z,16.38
2022-12-08T03:38:58.477Z,13.75
2022-12-08T03:41:27.030Z,18.85
2022-12-08T03:43:58.443Z,20.85
2022-12-08T03:48:55.655Z,17.40
2022-12-08T03:51:24.609Z,15.95
2022-12-08T03:53:54.359Z,19.05
2022-12-08T03:56:26.614Z,17.20
2022-12-08T03:58:55.998Z,18.48
2022-12-08T04:01:25.169Z,26.80
2022-12-08T04:03:53.596Z,17.38
2022-12-08T04:06:23.174Z,19.50
2022-12-08T04:08:53.602Z,14.23
2022-12-08T04:11:22.325Z,13.77
2022-12-08T04:13:50.545Z,15.10
2022-12-08T04:16:20.917Z,17.75
2022-12-08T04:18:49.329Z,11.95
2022-12-08T04:21:17.697Z,18.73
2022-12-08T04:23:46.333Z,21.25
2022-12-08T04:26:16.641Z,12.95
2022-12-08T04:28:45.412Z,12.43
2022-12-08T04:31:13.964Z,15.15
2022-12-08T04:33:42.226Z,14.93
2022-12-08T04:36:11.092Z,14.20
2022-12-08T04:38:39.299Z,13.48
2022-12-08T04:41:07.691Z,13.88
2022-12-08T04:43:37.442Z,13.60
2022-12-08T04:46:08.402Z,11.95
2022-12-08T04:48:38.772Z,13.88
2022-12-08T04:51:07.675Z,12.35
2022-12-08T04:53:35.857Z,19.65
2022-12-08T04:56:04.068Z,12.70
2022-12-08T04:58:32.360Z,17.42
2022-12-08T05:01:02.026Z,20.63
2022-12-08T05:03:30.229Z,14.27
2022-12-08T05:06:00.650Z,40.10
2022-12-08T05:08:29.435Z,46.35
2022-12-08T05:11:03.438Z,67.03
2022-12-08T05:13:35.111Z,22.35
2022-12-08T05:16:09.688Z,16.63
2022-12-08T05:18:38.458Z,14.93
2022-12-08T05:21:07.559Z,19.65
2022-12-08T05:23:35.911Z,16.77
2022-12-08T05:26:04.223Z,13.25
2022-12-08T05:28:41.268Z,18.75
2022-12-08T05:31:12.648Z,14.48
2022-12-08T05:33:41.085Z,18.35
2022-12-08T05:36:10.408Z,12.13
2022-12-08T05:38:38.624Z,16.38
2022-12-08T05:41:07.736Z,14.85
2022-12-08T05:43:36.276Z,19.75
2022-12-08T05:46:04.519Z,17.40
2022-12-08T05:48:37.016Z,20.15
2022-12-08T05:51:05.804Z,15.07
2022-12-08T05:53:34.028Z,15.15
2022-12-08T05:56:02.286Z,14.63
2022-12-08T05:58:30.516Z,17.48
2022-12-08T06:00:58.696Z,18.77
2022-12-08T06:03:26.984Z,17.13
2022-12-08T06:05:56.616Z,19.42
2022-12-08T06:08:24.920Z,20.00
2022-12-08T06:10:53.165Z,22.13
2022-12-08T06:13:21.342Z,21.75
2022-12-08T06:15:49.631Z,23.30
2022-12-08T06:18:17.819Z,19.65
2022-12-08T06:20:46.020Z,21.02
2022-12-08T06:23:15.573Z,20.65
2022-12-08T06:25:43.761Z,17.95
2022-12-08T06:28:11.965Z,23.83
2022-12-08T06:30:40.163Z,19.63
2022-12-08T06:33:08.332Z,20.95
2022-12-08T06:35:36.517Z,21.55
2022-12-08T06:38:04.685Z,20.45
2022-12-08T06:40:34.257Z,30.15
2022-12-08T06:43:02.435Z,20.10
2022-12-08T06:45:30.696Z,22.60
2022-12-08T06:47:58.893Z,28.20
2022-12-08T06:50:27.132Z,20.48
2022-12-08T06:53:03.127Z,23.48
2022-12-08T06:58:23.364Z,24.27
2022-12-08T07:00:51.681Z,24.40
2022-12-08T07:03:20.019Z,24.27
2022-12-08T07:05:48.228Z,25.58
2022-12-08T07:08:16.648Z,22.35
2022-12-08T07:10:46.240Z,26.30
2022-12-08T07:13:14.416Z,23.40
2022-12-08T07:15:42.581Z,24.02
2022-12-08T07:18:10.744Z,27.90
2022-12-08T07:20:39.286Z,21.48
2022-12-08T07:23:07.468Z,21.98
2022-12-08T07:25:35.664Z,24.30
2022-12-08T07:28:09.545Z,25.52
2022-12-08T07:30:38.049Z,28.42
2022-12-08T07:33:06.795Z,31.80
2022-12-08T07:35:35.465Z,28.05
2022-12-08T07:38:03.963Z,22.60
2022-12-08T07:40:32.153Z,27.33
2022-12-08T07:43:00.341Z,22.55
2022-12-08T07:45:31.622Z,21.65
2022-12-08T07:48:00.100Z,27.20
2022-12-08T07:50:28.273Z,23.33
2022-12-08T07:52:56.650Z,24.77
2022-12-08T07:55:24.863Z,23.48
2022-12-08T07:57:53.231Z,23.08
2022-12-08T08:00:22.411Z,26.48
2022-12-08T08:02:52.055Z,25.38
2022-12-08T08:05:20.739Z,26.70
2022-12-08T08:07:49.099Z,26.52
2022-12-08T08:10:17.397Z,20.88
2022-12-08T08:12:45.613Z,24.00
2022-12-08T08:15:14.327Z,21.00
2022-12-08T08:17:42.560Z,21.77
2022-12-08T08:20:13.366Z,22.83
2022-12-08T08:22:41.604Z,21.38
2022-12-08T08:25:10.447Z,19.85
2022-12-08T08:27:38.699Z,26.73
2022-12-08T08:30:08.556Z,20.50
2022-12-08T08:32:36.994Z,23.10
2022-12-08T08:35:06.197Z,24.25
2022-12-08T08:37:35.805Z,24.95
2022-12-08T08:40:04.449Z,20.02
2022-12-08T08:42:32.756Z,22.10
2022-12-08T08:45:00.963Z,22.42
2022-12-08T08:47:29.149Z,19.48
2022-12-08T08:49:57.374Z,24.05
2022-12-08T08:52:25.553Z,21.27
2022-12-08T08:54:55.170Z,18.83
2022-12-08T08:57:25.843Z,19.02
2022-12-08T08:59:54.737Z,23.75
2022-12-08T09:02:24.073Z,20.38
2022-12-08T09:04:52.476Z,18.58
2022-12-08T09:07:24.008Z,16.33
2022-12-08T09:09:55.722Z,22.08
2022-12-08T09:12:27.980Z,19.77
2022-12-08T09:14:56.188Z,17.67
2022-12-08T09:17:24.340Z,25.80
2022-12-08T09:19:52.541Z,17.75
2022-12-08T09:22:20.710Z,21.98
2022-12-08T09:24:48.957Z,19.77
2022-12-08T09:27:17.136Z,25.80
2022-12-08T09:29:46.695Z,18.70
2022-12-08T09:32:15.093Z,26.58
2022-12-08T09:34:46.425Z,23.60
2022-12-08T09:37:18.694Z,24.63
2022-12-08T09:39:47.685Z,21.55
2022-12-08T09:42:40.752Z,23.23
2022-12-08T09:45:13.959Z,22.25
2022-12-08T09:47:46.705Z,16.05
2022-12-08T09:50:19.853Z,19.98
2022-12-08T09:52:55.461Z,15.27
2022-12-08T09:55:35.421Z,17.15
2022-12-08T09:58:06.139Z,19.38
2022-12-08T10:00:35.997Z,16.75
2022-12-08T10:03:04.215Z,17.10
2022-12-08T10:05:38.909Z,16.15
2022-12-08T10:08:14.131Z,15.45
2022-12-08T10:10:48.157Z,16.05
2022-12-08T10:13:24.460Z,16.98
2022-12-08T10:16:05.100Z,23.15
2022-12-08T10:18:34.625Z,13.85
2022-12-08T10:21:20.574Z,18.85
2022-12-08T10:23:52.026Z,11.25
2022-12-08T10:26:22.569Z,12.43
2022-12-08T10:28:51.124Z,14.60
2022-12-08T10:31:23.429Z,15.02
2022-12-08T10:33:59.970Z,16.08
2022-12-08T10:36:47.156Z,14.93
2022-12-08T10:39:37.190Z,15.02
2022-12-08T10:42:20.017Z,14.18
2022-12-08T10:44:56.686Z,14.38
2022-12-08T10:47:27.969Z,17.63
2022-12-08T10:50:18.877Z,17.27
2022-12-08T10:52:48.088Z,21.20
2022-12-08T10:55:18.775Z,19.63
2022-12-08T10:57:48.948Z,17.95
2022-12-08T11:00:19.681Z,15.48
2022-12-08T11:03:01.086Z,17.25
2022-12-08T11:05:34.149Z,18.77
2022-12-08T11:08:03.465Z,19.70
2022-12-08T11:10:37.503Z,23.58
2022-12-08T11:13:07.628Z,20.13
2022-12-08T11:15:39.390Z,17.63
2022-12-08T11:18:24.564Z,14.52
2022-12-08T11:21:00.455Z,14.50
2022-12-08T11:23:30.841Z,13.82
2022-12-08T11:26:04.893Z,18.15
2022-12-08T11:28:33.173Z,11.55
2022-12-08T11:31:08.340Z,13.75
2022-12-08T11:33:38.006Z,14.20
2022-12-08T11:36:10.538Z,11.98
2022-12-08T11:38:43.233Z,11.82
2022-12-08T11:41:16.617Z,13.63
2022-12-08T11:43:52.092Z,13.90
2022-12-08T11:46:23.654Z,14.32
2022-12-08T11:49:05.572Z,20.00
2022-12-08T11:51:38.430Z,11.90
2022-12-08T11:54:20.892Z,17.58
2022-12-08T11:56:51.244Z,13.75
2022-12-08T11:59:28.717Z,13.63
2022-12-08T12:01:58.185Z,15.98
2022-12-08T12:04:33.303Z,14.70
2022-12-08T12:07:27.351Z,16.15
2022-12-08T12:10:21.750Z,12.50
2022-12-08T12:13:03.798Z,13.20
2022-12-08T12:15:56.244Z,15.15
2022-12-08T12:18:28.894Z,13.73
2022-12-08T12:21:02.937Z,14.90
2022-12-08T12:23:37.560Z,15.02
2022-12-08T12:26:08.375Z,12.10
2022-12-08T12:28:44.356Z,14.32
2022-12-08T12:31:19.233Z,19.67
2022-12-08T12:33:48.793Z,17.50
2022-12-08T12:36:19.001Z,13.85
2022-12-08T12:39:03.520Z,15.13
2022-12-08T12:41:38.744Z,13.85
2022-12-08T12:44:44.417Z,32.30
2022-12-08T12:47:15.369Z,16.95
2022-12-08T12:50:37.113Z,31.60
2022-12-08T12:53:27.958Z,22.50
2022-12-08T12:55:59.053Z,39.20
2022-12-08T12:58:43.529Z,22.42
2022-12-08T13:01:49.970Z,25.98
2022-12-08T13:04:18.784Z,66.53
2022-12-08T13:06:49.983Z,44.53
2022-12-08T13:09:34.723Z,78.30
2022-12-08T13:12:11.437Z,46.65
2022-12-08T13:14:47.531Z,35.33
2022-12-08T13:17:28.604Z,46.28
2022-12-08T13:19:59.785Z,45.70
2022-12-08T13:22:58.760Z,38.08
2022-12-08T13:26:10.661Z,64.65
2022-12-08T13:29:15.330Z,186.07
2022-12-08T13:31:50.676Z,73.60
2022-12-08T13:34:25.610Z,98.45
2022-12-08T13:37:09.740Z,32.72
2022-12-08T13:39:45.141Z,53.95
2022-12-08T13:42:21.417Z,36.08
2022-12-08T13:48:20.555Z,78.03
2022-12-08T13:52:37.056Z,98.45
2022-12-08T13:54:35.302Z,175.23
2022-12-08T13:59:24.746Z,196.18
2022-12-08T14:01:58.128Z,92.50
2022-12-08T14:04:54.631Z,248.68
2022-12-08T14:07:15.924Z,197.10
2022-12-08T14:09:44.287Z,56.85
2022-12-08T14:12:21.070Z,55.42
2022-12-08T14:15:03.041Z,46.58
2022-12-08T14:17:37.607Z,42.00
2022-12-08T14:20:24.791Z,34.83
2022-12-08T14:22:54.319Z,37.80
2022-12-08T14:25:24.073Z,39.83
2022-12-08T14:27:59.913Z,44.78
2022-12-08T14:30:33.729Z,45.65
2022-12-08T14:33:04.937Z,39.03
2022-12-08T14:35:35.600Z,35.38
2022-12-08T14:38:05.235Z,55.63
2022-12-08T14:40:36.259Z,70.55
2022-12-08T14:43:17.922Z,113.40
2022-12-08T14:45:53.255Z,126.75
2022-12-08T14:48:27.518Z,339.80
2022-12-08T14:51:05.266Z,240.45
2022-12-08T14:53:40.703Z,171.20
2022-12-08T14:56:14.024Z,228.43
2022-12-08T14:58:42.863Z,330.80
2022-12-08T15:01:14.597Z,86.97
2022-12-08T15:03:50.626Z,88.50
2022-12-08T15:06:22.281Z,166.50
2022-12-08T15:08:56.399Z,87.95
2022-12-08T15:11:36.128Z,235.35
2022-12-08T15:14:05.050Z,203.70
2022-12-08T15:16:40.167Z,125.70
2022-12-08T15:19:23.288Z,101.40
2022-12-08T15:21:52.229Z,114.88
2022-12-08T15:24:22.594Z,176.45
2022-12-08T15:26:51.889Z,103.65
2022-12-08T15:29:22.840Z,134.02
2022-12-08T15:31:52.576Z,140.18
2022-12-08T15:34:22.762Z,73.25
2022-12-08T15:36:55.878Z,50.85
2022-12-08T15:39:33.316Z,54.83
2022-12-08T15:42:02.481Z,74.97
2022-12-08T15:44:32.757Z,53.33
2022-12-08T15:47:01.928Z,82.85
2022-12-08T15:49:31.634Z,41.67
2022-12-08T15:52:10.803Z,53.35
2022-12-08T15:54:39.712Z,61.03
2022-12-08T15:57:20.262Z,43.88
2022-12-08T15:59:56.897Z,45.40
2022-12-08T16:02:25.506Z,85.53
2022-12-08T16:07:43.592Z,66.45
2022-12-08T16:10:25.678Z,62.38
2022-12-08T16:13:55.372Z,44.72
2022-12-08T16:16:01.595Z,43.95
2022-12-08T16:18:32.671Z,36.25
2022-12-08T16:21:12.491Z,41.42
2022-12-08T16:23:53.542Z,35.65
2022-12-08T16:27:06.845Z,34.65
2022-12-08T16:29:28.702Z,34.00
2022-12-08T16:31:59.711Z,31.58
2022-12-08T16:34:27.908Z,42.72
2022-12-08T16:36:57.478Z,30.42
2022-12-08T16:39:26.197Z,34.80
2022-12-08T16:42:11.933Z,27.83
2022-12-08T16:44:42.999Z,32.25
2022-12-08T16:47:11.628Z,32.58
2022-12-08T16:49:42.899Z,39.03
2022-12-08T16:52:12.716Z,26.65
2022-12-08T16:54:40.983Z,33.80
2022-12-08T16:57:09.257Z,31.95
2022-12-08T16:59:40.610Z,32.92
2022-12-08T17:02:13.652Z,41.97
2022-12-08T17:04:44.473Z,31.23
2022-12-08T17:07:14.126Z,26.40
2022-12-08T17:09:42.322Z,25.83
2022-12-08T17:12:11.275Z,35.28
2022-12-08T17:14:39.506Z,27.65
2022-12-08T17:17:07.684Z,24.42
2022-12-08T17:19:35.877Z,28.15
2022-12-08T17:22:04.493Z,23.60
2022-12-08T17:24:35.400Z,24.23
2022-12-08T17:27:04.437Z,26.00
2022-12-08T17:29:33.475Z,22.50
2022-12-08T17:32:02.073Z,27.90
2022-12-08T17:34:30.409Z,18.67
2022-12-08T17:36:58.601Z,23.83
2022-12-08T17:39:27.008Z,19.13
2022-12-08T17:42:01.969Z,21.27
2022-12-08T17:44:34.162Z,19.45
2022-12-08T17:47:02.716Z,15.65
2022-12-08T17:49:32.936Z,18.55
2022-12-08T17:52:03.163Z,18.02
2022-12-08T17:54:37.433Z,20.48
2022-12-08T17:57:07.186Z,15.70
2022-12-08T17:59:35.384Z,15.80
2022-12-08T18:02:04.428Z,21.13
2022-12-08T18:04:32.768Z,20.85
2022-12-08T18:07:03.382Z,17.60
2022-12-08T18:09:35.359Z,26.45
2022-12-08T18:12:03.809Z,25.02
2022-12-08T18:14:33.421Z,67.32
2022-12-08T18:17:02.107Z,28.05
2022-12-08T18:19:30.453Z,51.67
2022-12-08T18:21:58.653Z,45.28
2022-12-08T18:24:29.704Z,37.63
2022-12-08T18:26:58.011Z,21.40
2022-12-08T18:29:26.355Z,17.02
2022-12-08T18:31:56.012Z,26.45
2022-12-08T18:34:24.230Z,80.57
2022-12-08T18:36:55.234Z,45.78
2022-12-08T18:39:25.838Z,24.40
2022-12-08T18:41:55.104Z,18.15
2022-12-08T18:44:23.514Z,26.80
2022-12-08T18:46:51.765Z,17.75
2022-12-08T18:49:21.525Z,14.75
2022-12-08T18:51:52.371Z,15.68
2022-12-08T18:54:27.703Z,15.57
2022-12-08T18:57:05.488Z,20.10
2022-12-08T18:59:33.864Z,20.92
2022-12-08T19:02:02.103Z,18.95
2022-12-08T19:04:34.712Z,16.67
2022-12-08T19:07:06.429Z,21.58
2022-12-08T19:09:34.677Z,24.85
2022-12-08T19:12:03.012Z,22.80
2022-12-08T19:14:31.337Z,25.05
2022-12-08T19:17:02.416Z,16.77
2022-12-08T19:19:36.523Z,16.92
2022-12-08T19:22:04.729Z,13.32
2022-12-08T19:24:34.861Z,14.48
2022-12-08T19:27:03.106Z,13.90
2022-12-08T19:29:31.305Z,20.50
2022-12-08T19:32:00.365Z,20.00
2022-12-08T19:34:28.649Z,22.00
2022-12-08T19:36:58.262Z,20.50
2022-12-08T19:39:43.791Z,23.48
2022-12-08T19:42:33.792Z,22.75
2022-12-08T19:45:04.863Z,24.27
2022-12-08T19:47:33.434Z,29.20
2022-12-08T19:50:19.264Z,32.10
2022-12-08T19:52:48.903Z,26.60
2022-12-08T19:55:17.139Z,25.15
2022-12-08T19:57:48.322Z,24.73
2022-12-08T20:00:17.247Z,24.38
2022-12-08T20:02:45.499Z,29.48
2022-12-08T20:05:14.310Z,35.05
2022-12-08T20:07:42.991Z,32.80
2022-12-08T20:10:21.169Z,28.10
2022-12-08T20:13:13.328Z,36.63
2022-12-08T20:15:41.951Z,45.50
2022-12-08T20:18:10.953Z,47.95
2022-12-08T20:20:40.256Z,35.70
2022-12-08T20:23:08.914Z,39.85
2022-12-08T20:25:44.355Z,27.95
2022-12-08T20:28:12.808Z,39.05
2022-12-08T20:30:41.230Z,30.77
2022-12-08T20:33:09.487Z,29.85
2022-12-08T20:35:37.737Z,33.25
2022-12-08T20:38:06.003Z,28.92
2022-12-08T20:40:50.664Z,29.23
2022-12-08T20:43:18.894Z,40.13
2022-12-08T20:45:49.924Z,45.22
2022-12-08T20:48:18.279Z,40.25
2022-12-08T20:50:46.683Z,36.55
2022-12-08T20:53:15.092Z,39.33
2022-12-08T20:55:43.741Z,35.45
2022-12-08T20:58:14.477Z,30.52
2022-12-08T21:00:43.571Z,46.47
2022-12-08T21:03:22.639Z,33.22
2022-12-08T21:05:52.494Z,28.80
2022-12-08T21:08:25.955Z,38.22
2022-12-08T21:10:55.501Z,31.40
2022-12-08T21:13:25.350Z,44.85
2022-12-08T21:15:53.708Z,47.90
2022-12-08T21:18:22.398Z,34.22
2022-12-08T21:20:51.545Z,26.33
2022-12-08T21:23:22.990Z,29.55
2022-12-08T21:25:51.227Z,29.67
2022-12-08T21:28:19.685Z,43.10
2022-12-08T21:30:49.349Z,24.77
2022-12-08T21:33:20.858Z,44.17
2022-12-08T21:35:49.121Z,40.95
2022-12-08T21:38:17.436Z,21.70
2022-12-08T21:40:45.762Z,24.92
2022-12-08T21:43:14.626Z,29.77
2022-12-08T21:45:42.991Z,29.25
2022-12-08T21:48:12.846Z,27.20
2022-12-08T21:50:41.128Z,36.83
2022-12-08T21:53:09.444Z,32.23
2022-12-08T21:55:37.894Z,40.15
2022-12-08T21:58:06.261Z,25.60
2022-12-08T22:00:34.622Z,30.13
2022-12-08T22:03:03.552Z,26.95
2022-12-08T22:05:33.785Z,30.30
2022-12-08T22:08:02.263Z,35.65
2022-12-08T22:10:30.684Z,70.50
2022-12-08T22:12:59.234Z,51.97
2022-12-08T22:15:29.780Z,32.00
2022-12-08T22:17:58.294Z,27.23
2022-12-08T22:20:26.800Z,26.65
2022-12-08T22:22:56.391Z,24.27
2022-12-08T22:25:24.596Z,32.08
2022-12-08T22:27:52.887Z,40.58
2022-12-08T22:30:21.520Z,29.15
2022-12-08T22:32:49.837Z,37.20
2022-12-08T22:35:18.081Z,27.80
2022-12-08T22:37:49.472Z,27.88
2022-12-08T22:40:19.450Z,27.65
2022-12-08T22:42:47.741Z,32.47
2022-12-08T22:45:15.941Z,39.97
2022-12-08T22:47:44.337Z,25.67
2022-12-08T22:50:13.034Z,33.47
2022-12-08T22:52:41.441Z,28.52
2022-12-08T22:55:10.501Z,25.48
2022-12-08T22:57:43.142Z,27.10
2022-12-08T23:00:13.073Z,28.25
2022-12-08T23:02:41.576Z,38.03
2022-12-08T23:05:11.023Z,29.48
2022-12-08T23:07:39.733Z,30.88
2022-12-08T23:10:09.717Z,28.08
2022-12-08T23:12:39.712Z,27.38
2022-12-08T23:15:09.175Z,23.58
2022-12-08T23:17:37.523Z,21.52
2022-12-08T23:20:07.389Z,20.88
2022-12-08T23:22:35.797Z,21.75
2022-12-08T23:25:04.624Z,22.98
2022-12-08T23:27:33.686Z,25.23
2022-12-08T23:30:03.638Z,21.63
2022-12-08T23:32:32.283Z,21.17
2022-12-08T23:35:00.723Z,21.95
2022-12-08T23:37:29.958Z,24.60
2022-12-08T23:39:58.189Z,19.27
2022-12-08T23:42:26.444Z,16.67
2022-12-08T23:44:54.759Z,21.58
2022-12-08T23:47:24.408Z,24.52
2022-12-08T23:49:52.648Z,19.05
2022-12-08T23:52:20.826Z,18.88
2022-12-08T23:54:51.160Z,19.10
2022-12-08T23:57:19.545Z,22.45
2022-12-08T23:59:48.130Z,18.00
